createdAt,value
2023-01-23T02:35:30.129Z,0.99
2023-01-23T02:36:30.079Z,0.98
2023-01-23T02:37:30.077Z,1.02
2023-01-23T02:38:29.997Z,1.00
2023-01-23T02:39:29.968Z,1.01
2023-01-23T02:40:29.929Z,1.01
2023-01-23T02:41:29.908Z,0.99
2023-01-23T02:42:29.849Z,1.01
2023-01-23T02:43:29.793Z,1.01
2023-01-23T02:44:29.786Z,1.00
2023-01-23T02:45:29.733Z,0.99
2023-01-23T02:46:29.675Z,1.00
2023-01-23T02:47:29.634Z,1.01
2023-01-23T02:48:29.667Z,1.00
2023-01-23T02:49:29.544Z,1.01
2023-01-23T02:50:29.508Z,0.98
2023-01-23T02:52:29.450Z,0.85
2023-01-23T02:53:29.444Z,0.83
2023-01-23T02:54:29.362Z,0.86
2023-01-23T02:55:29.316Z,0.85
2023-01-23T02:56:29.332Z,0.77
2023-01-23T02:57:29.288Z,0.72
2023-01-23T02:58:29.206Z,0.70
2023-01-23T02:59:29.164Z,0.66
2023-01-23T03:00:29.131Z,0.63
2023-01-23T03:01:29.090Z,0.66
2023-01-23T03:02:29.096Z,0.61
2023-01-23T03:03:29.054Z,0.56
2023-01-23T03:04:29.077Z,0.51
2023-01-23T03:05:28.960Z,0.50
2023-01-23T03:06:28.927Z,0.50
2023-01-23T06:53:21.517Z,2.25
2023-01-23T06:56:21.368Z,2.90
2023-01-23T07:00:21.561Z,3.55
2023-01-23T07:01:22.253Z,3.66
2023-01-23T07:02:21.183Z,3.95
2023-01-23T07:03:21.200Z,4.03
2023-01-23T07:04:21.225Z,4.00
2023-01-23T07:05:21.109Z,4.17
2023-01-23T07:06:21.096Z,4.12
2023-01-23T07:07:21.062Z,3.88
2023-01-23T07:08:21.012Z,4.01
2023-01-23T07:09:20.981Z,4.07
2023-01-23T07:10:21.385Z,4.09
2023-01-23T07:11:20.920Z,4.21
2023-01-23T07:12:20.888Z,4.18
2023-01-23T07:13:20.836Z,4.20
2023-01-23T07:14:20.810Z,4.24
2023-01-23T07:15:20.831Z,4.11
2023-01-23T07:16:20.758Z,3.94
2023-01-23T07:17:20.708Z,3.96
2023-01-23T07:18:20.677Z,3.97
2023-01-23T07:19:20.634Z,4.12
2023-01-23T07:20:20.965Z,4.17
2023-01-23T07:21:20.585Z,4.14
2023-01-23T07:22:20.540Z,4.12
2023-01-23T07:23:20.495Z,3.96
2023-01-23T07:24:20.459Z,3.89
2023-01-23T07:25:20.422Z,3.98
2023-01-23T07:26:20.397Z,3.96
2023-01-23T07:27:20.356Z,4.03
2023-01-23T07:28:20.307Z,3.97
2023-01-23T07:29:20.278Z,3.95
2023-01-23T07:30:20.529Z,3.97
2023-01-23T07:31:20.327Z,3.95
2023-01-23T07:32:20.183Z,3.78
2023-01-23T07:33:20.157Z,3.76
2023-01-23T07:34:20.116Z,3.85
2023-01-23T07:35:20.054Z,3.98
2023-01-23T07:36:20.115Z,3.94
2023-01-23T07:37:20.063Z,3.82
2023-01-23T07:38:19.945Z,3.83
2023-01-23T07:39:19.930Z,3.83
2023-01-23T07:40:20.211Z,3.89
2023-01-23T07:41:19.847Z,3.82
2023-01-23T07:42:19.821Z,3.41
2023-01-23T07:43:19.783Z,3.93
2023-01-23T07:44:19.748Z,4.05
2023-01-23T07:45:19.714Z,4.25
2023-01-23T07:46:19.788Z,4.34
2023-01-23T07:47:19.720Z,4.49
2023-01-23T07:48:19.622Z,4.33
2023-01-23T07:49:19.563Z,4.27
2023-01-23T07:50:19.766Z,4.28
2023-01-23T07:51:19.610Z,4.26
2023-01-23T07:52:19.560Z,4.13
2023-01-23T07:53:19.530Z,4.27
2023-01-23T07:54:19.398Z,4.29
2023-01-23T07:55:19.356Z,1.55
2023-01-23T07:56:19.321Z,2.15
2023-01-23T07:57:19.297Z,2.41
2023-01-23T07:58:19.285Z,1.79
2023-01-23T07:59:19.265Z,1.29
2023-01-23T08:00:19.623Z,1.19
2023-01-23T08:01:19.336Z,3.82
2023-01-23T08:02:19.180Z,4.50
2023-01-23T08:03:19.171Z,4.42
2023-01-23T08:04:19.141Z,3.89
2023-01-23T08:05:19.140Z,3.63
2023-01-23T08:06:19.109Z,3.52
2023-01-23T08:07:19.070Z,3.67
2023-01-23T08:08:19.132Z,3.76
2023-01-23T08:09:19.015Z,3.96
2023-01-23T08:10:19.381Z,3.97
2023-01-23T08:11:18.950Z,3.99
2023-01-23T08:12:18.919Z,4.12
2023-01-23T08:15:19.755Z,4.93
2023-01-23T10:27:14.810Z,5.42
2023-01-23T10:28:14.776Z,5.53
2023-01-23T10:29:14.752Z,5.30
2023-01-23T10:30:14.706Z,5.47
2023-01-23T10:31:14.826Z,5.48
2023-01-23T10:32:14.768Z,5.34
2023-01-23T10:33:14.619Z,5.28
2023-01-23T10:34:14.593Z,5.42
2023-01-23T10:35:14.562Z,5.29
2023-01-23T10:36:17.625Z,5.25
2023-01-23T10:37:15.485Z,5.12
2023-01-23T10:38:14.460Z,5.01
2023-01-23T10:39:14.420Z,4.73
2023-01-23T10:40:14.395Z,5.02
2023-01-23T10:41:14.355Z,5.12
2023-01-23T10:42:14.331Z,5.23
2023-01-23T10:43:14.299Z,5.31
2023-01-23T10:44:14.364Z,5.29
2023-01-23T10:45:14.278Z,4.89
2023-01-23T10:46:14.345Z,5.04
2023-01-23T10:47:14.287Z,0.75
2023-01-23T10:48:16.274Z,0.39
2023-01-23T10:49:14.124Z,0.41
2023-01-23T10:50:14.181Z,0.42
2023-01-23T10:51:14.163Z,0.79
2023-01-23T10:52:14.141Z,1.06
2023-01-23T10:53:14.130Z,1.07
2023-01-23T10:54:29.666Z,1.17
2023-01-23T10:57:14.095Z,1.43
2023-01-23T10:58:14.000Z,1.81
2023-01-23T10:59:13.974Z,1.20
2023-01-23T11:00:13.983Z,1.33
2023-01-23T11:08:56.149Z,1.17
2023-01-23T11:09:47.838Z,1.29
2023-01-23T11:10:46.736Z,1.70
2023-01-23T11:11:46.708Z,2.54
2023-01-23T11:12:46.692Z,4.36
2023-01-23T11:13:46.679Z,8.59
2023-01-23T11:15:09.728Z,8.95
2023-01-23T11:16:46.602Z,9.02
2023-01-23T11:17:46.564Z,9.01
2023-01-23T11:18:46.591Z,8.95
2023-01-23T11:19:46.519Z,8.93
2023-01-23T11:20:46.449Z,8.92
2023-01-23T11:21:46.425Z,8.63
2023-01-23T11:22:46.389Z,8.81
2023-01-23T11:23:46.362Z,8.80
2023-01-23T11:24:46.352Z,8.52
2023-01-23T11:25:46.340Z,8.36
2023-01-23T11:26:46.256Z,8.52
2023-01-23T11:27:46.220Z,8.61
2023-01-23T11:28:46.206Z,8.39
2023-01-23T11:29:46.155Z,8.47
2023-01-23T11:30:46.214Z,7.75
2023-01-23T11:31:46.234Z,7.93
2023-01-23T11:32:46.064Z,7.05
2023-01-23T11:33:46.035Z,7.85
2023-01-23T11:34:46.100Z,7.43
2023-01-23T11:35:45.973Z,6.20
2023-01-23T11:36:45.961Z,1.35
2023-01-23T11:37:45.948Z,2.43
2023-01-23T11:38:52.459Z,2.83
2023-01-23T11:39:46.863Z,2.86
2023-01-23T11:40:45.836Z,3.06
2023-01-23T11:41:45.877Z,3.65
2023-01-23T11:42:45.777Z,4.82
2023-01-23T11:43:46.322Z,7.02
2023-01-23T11:44:46.624Z,7.59
2023-01-23T11:45:45.748Z,7.67
2023-01-23T11:46:45.715Z,7.79
2023-01-23T11:47:45.633Z,7.99
2023-01-23T11:48:45.605Z,8.19
2023-01-23T11:49:45.585Z,8.64
2023-01-23T11:50:54.958Z,8.71
2023-01-23T11:51:46.529Z,8.72
2023-01-23T11:52:45.529Z,8.72
2023-01-23T11:53:45.518Z,8.76
2023-01-23T11:54:45.448Z,8.73
2023-01-23T11:55:45.425Z,8.94
2023-01-23T11:56:45.387Z,9.89
2023-01-23T11:57:45.363Z,9.86
2023-01-23T11:59:46.318Z,20.76
2023-01-23T12:00:45.292Z,22.13
2023-01-23T12:01:49.399Z,23.46
2023-01-23T12:02:45.244Z,20.36
2023-01-23T12:03:45.174Z,20.98
2023-01-23T12:04:45.140Z,21.62
2023-01-23T12:05:45.104Z,20.63
2023-01-23T12:06:45.152Z,19.30
2023-01-23T12:07:45.031Z,18.74
2023-01-23T12:08:44.996Z,19.19
2023-01-23T12:09:44.960Z,18.82
2023-01-23T12:10:44.933Z,18.80
2023-01-23T12:11:45.778Z,18.76
2023-01-23T12:12:44.862Z,18.45
2023-01-23T12:13:44.852Z,18.06
2023-01-23T12:14:44.830Z,16.95
2023-01-23T12:15:44.844Z,16.00
2023-01-23T12:16:44.731Z,15.38
2023-01-23T12:17:44.710Z,16.32
2023-01-23T12:18:44.669Z,16.46
2023-01-23T12:19:44.643Z,17.07
2023-01-23T12:20:45.705Z,16.13
2023-01-23T12:21:44.575Z,16.89
2023-01-23T12:22:44.537Z,16.99
2023-01-23T12:23:44.510Z,15.50
2023-01-23T12:24:44.471Z,14.57
2023-01-23T12:25:44.447Z,14.32
2023-01-23T12:26:44.383Z,13.69
2023-01-23T12:27:44.389Z,12.37
2023-01-23T12:28:44.310Z,13.87
2023-01-23T12:29:44.340Z,13.81
2023-01-23T12:30:44.243Z,14.71
2023-01-23T12:31:44.284Z,15.36
2023-01-23T12:32:44.232Z,15.46
2023-01-23T12:33:44.129Z,14.40
2023-01-23T12:34:44.104Z,15.02
2023-01-23T12:35:44.053Z,14.86
2023-01-23T12:36:54.406Z,13.50
2023-01-23T12:37:45.012Z,13.51
2023-01-23T12:38:44.313Z,12.96
2023-01-23T12:39:43.930Z,13.45
2023-01-23T12:40:43.901Z,13.41
2023-01-23T12:41:43.923Z,12.80
2023-01-23T12:42:43.817Z,12.61
2023-01-23T12:43:43.786Z,12.58
2023-01-23T12:44:43.765Z,12.26
2023-01-23T12:45:43.734Z,11.87
2023-01-23T12:46:43.687Z,10.05
2023-01-23T12:47:43.631Z,10.07
2023-01-23T12:48:43.594Z,10.18
2023-01-23T12:49:43.559Z,10.41
2023-01-23T12:50:43.544Z,10.63
2023-01-23T12:51:43.502Z,10.91
2023-01-23T12:52:43.466Z,10.80
2023-01-23T12:53:43.429Z,10.27
2023-01-23T12:54:43.470Z,10.28
2023-01-23T12:55:43.355Z,8.90
2023-01-23T12:56:43.334Z,8.93
2023-01-23T12:57:59.436Z,8.98
2023-01-23T12:59:43.204Z,8.93
2023-01-23T13:00:43.248Z,8.67
2023-01-23T13:01:43.172Z,8.81
2023-01-23T13:02:43.095Z,8.91
2023-01-23T13:03:46.284Z,8.78
2023-01-23T13:04:43.015Z,8.78
2023-01-23T13:05:43.028Z,8.71
2023-01-23T13:06:42.948Z,8.84
2023-01-23T13:07:42.918Z,8.89
2023-01-23T13:08:57.968Z,9.04
2023-01-23T13:10:42.906Z,8.89
2023-01-23T13:11:42.798Z,8.96
2023-01-23T13:12:42.746Z,9.16
2023-01-23T13:13:42.706Z,9.39
2023-01-23T13:15:00.595Z,9.54
2023-01-23T13:16:42.804Z,9.60
2023-01-23T13:17:42.591Z,9.70
2023-01-23T13:18:42.534Z,9.84
2023-01-23T13:19:42.494Z,9.92
2023-01-23T13:20:42.477Z,10.20
2023-01-23T13:21:42.438Z,10.21
2023-01-23T13:22:42.385Z,10.20
2023-01-23T13:32:42.052Z,10.85
2023-01-23T14:18:40.382Z,0.47
2023-01-23T14:20:40.326Z,0.75
2023-01-23T14:21:41.628Z,0.60
2023-01-23T14:22:40.292Z,0.53
2023-01-23T14:23:40.259Z,0.49
2023-01-23T14:24:40.255Z,0.59
2023-01-23T14:25:40.223Z,0.51
2023-01-23T14:26:40.201Z,0.81
2023-01-23T14:27:52.802Z,1.15
2023-01-23T14:29:40.158Z,0.98
2023-01-23T14:30:40.140Z,0.64
2023-01-23T14:31:40.204Z,0.74
2023-01-23T14:32:40.122Z,0.92
2023-01-23T14:33:40.101Z,0.86
2023-01-23T14:34:40.156Z,0.50
2023-01-23T14:35:40.064Z,0.78
2023-01-23T14:36:40.054Z,1.08
2023-01-23T14:37:40.041Z,0.82
2023-01-23T14:38:40.033Z,0.66
2023-01-23T14:39:44.029Z,0.75
2023-01-23T14:40:49.739Z,0.76
2023-01-23T14:41:41.580Z,0.76
2023-01-23T14:42:39.940Z,0.79
2023-01-23T14:43:39.945Z,0.87
2023-01-23T14:44:39.905Z,1.38
2023-01-23T14:45:39.942Z,1.27
2023-01-23T14:46:39.985Z,1.60
2023-01-23T14:47:42.227Z,2.22
2023-01-23T14:48:39.935Z,1.22
2023-01-23T14:49:39.905Z,1.21
2023-01-23T14:50:39.889Z,1.42
2023-01-23T14:51:39.889Z,1.21
2023-01-23T14:52:39.945Z,1.41
2023-01-23T14:53:39.828Z,1.29
2023-01-23T14:54:41.986Z,0.98
2023-01-23T14:55:39.784Z,1.14
2023-01-23T14:56:39.819Z,1.84
2023-01-23T14:57:39.761Z,1.41
2023-01-23T14:58:39.738Z,1.02
2023-01-23T14:59:39.737Z,0.92
2023-01-23T15:00:39.752Z,1.41
2023-01-23T15:01:39.712Z,1.25
2023-01-23T15:02:39.822Z,1.24
2023-01-23T15:03:39.640Z,0.87
2023-01-23T15:04:39.629Z,0.93
2023-01-23T15:05:39.614Z,1.53
2023-01-23T15:06:39.609Z,1.17
2023-01-23T15:07:39.586Z,0.90
2023-01-23T15:08:39.566Z,1.08
2023-01-23T15:09:39.544Z,0.77
2023-01-23T15:10:39.546Z,0.64
2023-01-23T15:11:39.525Z,0.74
2023-01-23T15:12:39.539Z,0.59
2023-01-23T15:13:39.517Z,0.80
2023-01-23T15:14:39.492Z,1.18
2023-01-23T15:15:39.516Z,1.19
2023-01-23T15:16:39.527Z,1.20
2023-01-23T15:17:39.456Z,1.75
2023-01-23T15:18:39.525Z,5.26
2023-01-23T15:19:39.435Z,5.31
2023-01-23T15:20:39.418Z,6.50
2023-01-23T15:21:39.393Z,7.32
2023-01-23T15:22:39.372Z,7.28
2023-01-23T15:23:39.352Z,7.90
2023-01-23T15:24:39.337Z,9.22
2023-01-23T15:25:39.305Z,10.14
2023-01-23T15:26:39.395Z,11.55
2023-01-23T15:27:39.273Z,12.82
2023-01-23T15:28:39.258Z,14.36
2023-01-23T15:29:39.212Z,15.64
2023-01-23T15:30:39.270Z,16.50
2023-01-23T15:31:39.412Z,17.47
2023-01-23T15:32:39.152Z,19.97
2023-01-23T15:33:39.115Z,22.50
2023-01-23T15:34:39.174Z,25.02
2023-01-23T15:35:39.078Z,25.86
2023-01-23T15:36:39.043Z,27.08
2023-01-23T15:37:39.016Z,27.03
2023-01-23T15:38:38.989Z,27.75
2023-01-23T15:39:38.964Z,27.81
2023-01-23T15:40:38.949Z,28.27
2023-01-23T15:41:38.917Z,29.17
2023-01-23T16:03:38.357Z,32.05
2023-01-23T16:16:37.989Z,34.76
2023-01-23T16:17:37.829Z,34.99
2023-01-23T16:18:37.800Z,35.14
2023-01-23T16:19:37.787Z,35.32
2023-01-23T16:20:37.734Z,35.80
2023-01-23T16:21:37.707Z,35.74
2023-01-23T16:22:37.760Z,35.95
2023-01-23T16:23:47.322Z,36.26
2023-01-23T16:25:44.023Z,36.37
2023-01-23T16:27:37.530Z,36.48
2023-01-23T16:28:37.497Z,36.84
2023-01-23T16:29:37.456Z,37.11
2023-01-23T16:30:37.467Z,37.47
2023-01-23T16:31:37.588Z,37.45
2023-01-23T16:32:37.488Z,37.81
2023-01-23T16:33:37.316Z,37.75
2023-01-23T16:34:37.328Z,37.83
2023-01-23T16:35:37.251Z,37.81
2023-01-23T16:36:37.208Z,37.53
2023-01-23T16:37:37.205Z,37.72
2023-01-23T16:38:37.229Z,37.83
2023-01-23T16:39:37.115Z,37.64
2023-01-23T16:40:37.106Z,37.57
2023-01-23T16:41:37.037Z,37.92
2023-01-23T16:42:37.006Z,37.68
2023-01-23T16:43:36.999Z,37.80
2023-01-23T16:44:36.951Z,37.35
2023-01-23T16:45:36.904Z,37.68
2023-01-23T16:46:36.918Z,37.60
2023-01-23T16:47:36.844Z,37.36
2023-01-23T16:48:36.817Z,37.43
2023-01-23T16:49:50.952Z,37.49
2023-01-23T16:50:37.734Z,37.50
2023-01-23T16:51:36.710Z,37.63
2023-01-23T16:52:36.664Z,37.74
2023-01-23T16:53:36.632Z,38.12
2023-01-23T16:54:36.711Z,38.11
2023-01-23T16:55:36.584Z,37.91
2023-01-23T16:56:36.567Z,37.95
2023-01-23T16:57:36.521Z,37.89
2023-01-23T16:58:36.485Z,37.93
2023-01-23T16:59:36.449Z,37.90
2023-01-23T17:00:36.485Z,37.40
2023-01-23T17:01:36.384Z,37.29
2023-01-23T17:02:36.368Z,37.34
2023-01-23T17:03:36.324Z,37.42
2023-01-23T17:04:36.287Z,37.50
2023-01-23T17:05:36.257Z,37.74
2023-01-23T17:06:36.214Z,37.44
2023-01-23T17:07:36.208Z,37.20
2023-01-23T17:08:36.164Z,37.66
2023-01-23T17:09:36.126Z,37.36
2023-01-23T17:10:45.800Z,36.85
2023-01-23T17:11:37.083Z,36.91
2023-01-23T17:12:36.033Z,36.93
2023-01-23T17:13:36.023Z,37.01
2023-01-23T17:14:35.964Z,37.15
2023-01-23T17:15:35.935Z,37.33
2023-01-23T17:16:35.901Z,36.90
2023-01-23T17:17:35.869Z,37.06
2023-01-23T17:18:35.844Z,36.93
2023-01-23T17:19:36.492Z,37.06
2023-01-23T17:20:35.769Z,36.84
2023-01-23T17:21:35.727Z,36.69
2023-01-23T17:22:35.679Z,36.81
2023-01-23T17:23:35.647Z,36.46
2023-01-23T17:24:35.615Z,36.43
2023-01-23T17:25:37.782Z,35.96
2023-01-23T17:26:36.553Z,36.02
2023-01-23T17:27:44.490Z,36.12
2023-01-23T17:28:36.468Z,36.03
2023-01-23T17:29:35.431Z,36.14
2023-01-23T17:30:35.427Z,36.26
2023-01-23T17:31:35.475Z,36.49
2023-01-23T17:32:35.413Z,36.61
2023-01-23T17:33:35.307Z,36.56
2023-01-23T17:34:41.549Z,36.23
2023-01-23T17:36:35.212Z,36.34
2023-01-23T17:37:35.162Z,36.12
2023-01-23T17:38:35.137Z,36.23
2023-01-23T17:39:35.103Z,36.41
2023-01-23T17:40:35.061Z,36.30
2023-01-23T17:41:35.021Z,36.11
2023-01-23T17:42:34.995Z,35.73
2023-01-23T17:43:34.961Z,35.92
2023-01-23T17:44:34.925Z,35.68
2023-01-23T18:39:32.968Z,29.58
2023-01-23T18:40:32.932Z,28.95
2023-01-23T18:41:32.912Z,29.17
2023-01-23T18:42:32.875Z,29.62
2023-01-23T18:43:32.843Z,29.21
2023-01-23T18:44:32.800Z,28.39
2023-01-23T18:45:33.248Z,29.12
2023-01-23T18:46:32.811Z,28.45
2023-01-23T18:47:32.687Z,28.79
2023-01-23T18:48:32.647Z,28.96
2023-01-23T18:49:33.245Z,28.99
2023-01-23T18:50:32.569Z,28.52
2023-01-23T18:51:32.570Z,28.19
2023-01-23T18:52:32.504Z,27.97
2023-01-23T18:53:32.476Z,28.39
2023-01-23T18:54:32.437Z,27.62
2023-01-23T18:55:32.397Z,27.43
2023-01-23T18:56:32.401Z,27.77
2023-01-23T18:57:32.330Z,27.90
2023-01-23T18:58:32.284Z,27.73
2023-01-23T18:59:32.251Z,27.36
2023-01-23T19:00:32.221Z,27.33
2023-01-23T19:01:32.187Z,27.17
2023-01-23T19:02:32.224Z,27.71
2023-01-23T19:03:32.092Z,26.72
2023-01-23T19:04:32.992Z,26.94
2023-01-23T19:05:32.042Z,27.11
2023-01-23T19:06:33.265Z,26.49
2023-01-23T19:07:31.972Z,26.50
2023-01-23T19:08:31.900Z,26.47
2023-01-23T19:09:31.863Z,26.78
2023-01-23T19:10:40.135Z,26.64
2023-01-23T19:11:32.823Z,26.67
2023-01-23T19:12:31.768Z,26.67
2023-01-23T19:13:31.704Z,26.79
2023-01-23T19:14:31.672Z,26.89
2023-01-23T19:15:31.637Z,26.62
2023-01-23T19:16:31.614Z,25.99
2023-01-23T19:17:31.578Z,26.61
2023-01-23T19:18:40.175Z,26.41
2023-01-23T19:19:32.508Z,26.44
2023-01-23T19:20:31.447Z,26.44
2023-01-23T19:21:31.415Z,26.22
2023-01-23T19:22:31.377Z,26.19
2023-01-23T19:23:31.347Z,26.65
2023-01-23T19:24:31.305Z,26.20
2023-01-23T19:25:31.273Z,26.11
2023-01-23T19:26:31.232Z,26.00
2023-01-23T19:27:31.213Z,26.01
2023-01-23T19:28:31.163Z,25.50
2023-01-23T19:29:31.128Z,25.07
2023-01-23T19:30:31.092Z,25.60
2023-01-23T19:31:31.075Z,25.92
2023-01-23T19:32:31.092Z,25.68
2023-01-23T19:33:31.003Z,25.19
2023-01-23T19:34:31.015Z,25.08
2023-01-23T19:35:31.234Z,25.44
2023-01-23T19:36:30.855Z,24.89
2023-01-23T19:37:30.838Z,24.89
2023-01-23T19:38:30.792Z,25.39
2023-01-23T19:39:30.836Z,25.24
2023-01-23T19:40:31.516Z,24.61
2023-01-23T19:41:30.694Z,24.71
2023-01-23T19:42:38.739Z,24.41
2023-01-23T19:43:31.600Z,24.46
2023-01-23T19:44:30.577Z,24.45
2023-01-23T19:45:30.529Z,24.58
2023-01-23T19:46:30.530Z,24.71
2023-01-23T19:47:30.513Z,24.74
2023-01-23T19:48:30.457Z,24.64
2023-01-23T19:49:30.382Z,24.62
2023-01-23T19:50:30.444Z,24.21
2023-01-23T19:51:30.315Z,23.89
2023-01-23T19:52:30.274Z,23.94
2023-01-23T19:53:30.230Z,23.89
2023-01-23T19:54:30.201Z,24.12
2023-01-23T19:55:30.175Z,24.33
2023-01-23T19:56:30.131Z,24.09
2023-01-23T19:57:30.102Z,23.33
2023-01-23T19:58:32.172Z,23.41
2023-01-23T19:59:30.049Z,23.82
2023-01-23T20:00:30.007Z,23.64
2023-01-23T20:01:29.975Z,23.53
2023-01-23T20:02:30.095Z,23.03
2023-01-23T20:03:29.912Z,23.42
2023-01-23T20:04:29.877Z,23.04
2023-01-23T20:05:29.845Z,23.21
2023-01-23T20:06:29.896Z,23.18
2023-01-23T20:07:29.766Z,23.31
2023-01-23T20:08:29.733Z,22.67
2023-01-23T20:09:29.700Z,22.67
2023-01-23T20:10:29.666Z,22.71
2023-01-23T20:11:29.670Z,22.59
2023-01-23T20:12:29.591Z,22.52
2023-01-23T20:13:29.575Z,22.69
2023-01-23T20:14:29.531Z,22.61
2023-01-23T20:15:29.496Z,22.15
2023-01-23T20:16:29.476Z,22.03
2023-01-23T20:17:29.416Z,22.20
2023-01-23T20:18:29.379Z,22.02
2023-01-23T20:19:29.342Z,21.98
2023-01-23T20:20:29.322Z,21.64
2023-01-23T20:21:29.272Z,22.00
2023-01-23T20:22:29.317Z,21.70
2023-01-23T20:23:29.195Z,21.60
2023-01-23T20:24:29.153Z,21.90
2023-01-23T20:25:29.113Z,21.39
2023-01-23T20:26:29.079Z,21.58
2023-01-23T20:27:29.047Z,21.16
2023-01-23T20:28:29.009Z,21.06
2023-01-23T20:29:28.962Z,21.08
2023-01-23T20:30:29.293Z,21.42
2023-01-23T20:34:29.522Z,21.46
2023-01-23T23:05:23.621Z,13.24
2023-01-23T23:06:23.203Z,13.03
2023-01-23T23:07:23.167Z,13.20
2023-01-23T23:08:23.138Z,13.17
2023-01-23T23:09:23.095Z,12.88
2023-01-23T23:10:23.072Z,13.14
2023-01-23T23:11:23.030Z,13.17
2023-01-23T23:12:23.008Z,13.06
2023-01-23T23:13:22.982Z,12.89
2023-01-23T23:14:22.940Z,12.87
2023-01-23T23:15:23.209Z,12.85
2023-01-23T23:16:22.876Z,12.97
2023-01-23T23:17:22.870Z,12.74
2023-01-23T23:19:22.776Z,12.76
2023-01-23T23:20:22.747Z,12.83
2023-01-23T23:21:22.737Z,12.81
2023-01-23T23:22:22.699Z,12.61
2023-01-23T23:23:22.656Z,12.45
2023-01-23T23:24:22.737Z,12.52
2023-01-23T23:25:22.835Z,12.69
